sensor_id;sensor_type;location;lat;lon;timestamp;pressure;altitude;pressure_sealevel;temperature;humidity
33697;BME280;20031;43.416;23.232;2023-07-31T00:00:30;99449.66;;;24.02;72.75
33697;BME280;20031;43.416;23.232;2023-07-31T00:02:55;99443.53;;;24.02;72.94
33697;BME280;20031;43.416;23.232;2023-07-31T00:05:21;99441.97;;;24.06;72.59
33697;BME280;20031;43.416;23.232;2023-07-31T00:07:46;99441.44;;;24.04;72.52
33697;BME280;20031;43.416;23.232;2023-07-31T00:10:12;99441.44;;;24.04;71.67
33697;BME280;20031;43.416;23.232;2023-07-31T00:12:39;99444.84;;;23.99;70.50
33697;BME280;20031;43.416;23.232;2023-07-31T00:15:06;99449.91;;;24.01;70.43
33697;BME280;20031;43.416;23.232;2023-07-31T00:17:31;99451.56;;;24.07;70.90
33697;BME280;20031;43.416;23.232;2023-07-31T00:19:57;99450.25;;;24.14;70.16
33697;BME280;20031;43.416;23.232;2023-07-31T00:22:22;99444.66;;;24.20;70.09
33697;BME280;20031;43.416;23.232;2023-07-31T00:24:49;99446.31;;;24.26;70.44
33697;BME280;20031;43.416;23.232;2023-07-31T00:27:14;99443.41;;;24.28;69.98
33697;BME280;20031;43.416;23.232;2023-07-31T00:29:40;99452.41;;;24.22;70.23
33697;BME280;20031;43.416;23.232;2023-07-31T00:32:06;99443.34;;;24.18;70.32
33697;BME280;20031;43.416;23.232;2023-07-31T00:34:31;99439.03;;;24.12;70.89
33697;BME280;20031;43.416;23.232;2023-07-31T00:36:57;99441.97;;;24.11;71.19
33697;BME280;20031;43.416;23.232;2023-07-31T00:39:22;99439.56;;;24.04;71.31
33697;BME280;20031;43.416;23.232;2023-07-31T00:41:48;99435.81;;;23.95;71.41
33697;BME280;20031;43.416;23.232;2023-07-31T00:44:13;99431.75;;;23.88;71.62
33697;BME280;20031;43.416;23.232;2023-07-31T00:46:38;99434.97;;;23.90;71.65
33697;BME280;20031;43.416;23.232;2023-07-31T00:49:05;99435.75;;;23.90;71.36
33697;BME280;20031;43.416;23.232;2023-07-31T00:51:30;99433.41;;;23.94;71.36
33697;BME280;20031;43.416;23.232;2023-07-31T00:53:56;99432.31;;;23.95;70.90
33697;BME280;20031;43.416;23.232;2023-07-31T00:56:22;99424.38;;;24.00;70.83
33697;BME280;20031;43.416;23.232;2023-07-31T00:58:48;99425.19;;;24.05;70.29
33697;BME280;20031;43.416;23.232;2023-07-31T01:01:14;99418.81;;;24.06;70.33
33697;BME280;20031;43.416;23.232;2023-07-31T01:03:39;99416.69;;;24.08;70.03
33697;BME280;20031;43.416;23.232;2023-07-31T01:06:19;99411.94;;;24.15;69.54
33697;BME280;20031;43.416;23.232;2023-07-31T01:11:46;99424.72;;;24.18;69.03
33697;BME280;20031;43.416;23.232;2023-07-31T01:14:13;99423.91;;;24.13;69.11
33697;BME280;20031;43.416;23.232;2023-07-31T01:16:39;99421.50;;;24.16;68.46
33697;BME280;20031;43.416;23.232;2023-07-31T01:19:06;99414.59;;;24.20;68.13
33697;BME280;20031;43.416;23.232;2023-07-31T01:24:40;99416.47;;;24.24;68.46
33697;BME280;20031;43.416;23.232;2023-07-31T01:27:15;99419.41;;;24.23;68.57
33697;BME280;20031;43.416;23.232;2023-07-31T01:30:05;99411.72;;;24.26;68.10
33697;BME280;20031;43.416;23.232;2023-07-31T01:32:29;99405.03;;;24.24;67.55
33697;BME280;20031;43.416;23.232;2023-07-31T01:34:55;99409.31;;;24.25;67.30
33697;BME280;20031;43.416;23.232;2023-07-31T01:37:28;99402.34;;;24.19;66.86
33697;BME280;20031;43.416;23.232;2023-07-31T01:39:53;99406.56;;;24.10;65.62
33697;BME280;20031;43.416;23.232;2023-07-31T01:42:18;99412.94;;;24.04;66.01
33697;BME280;20031;43.416;23.232;2023-07-31T01:44:44;99404.19;;;24.09;66.17
33697;BME280;20031;43.416;23.232;2023-07-31T01:47:09;99408.50;;;24.19;66.38
33697;BME280;20031;43.416;23.232;2023-07-31T01:49:35;99405.84;;;24.29;65.99
33697;BME280;20031;43.416;23.232;2023-07-31T01:52:00;99410.16;;;24.35;66.14
33697;BME280;20031;43.416;23.232;2023-07-31T01:54:26;99397.94;;;24.39;66.56
33697;BME280;20031;43.416;23.232;2023-07-31T01:56:51;99400.59;;;24.44;66.17
33697;BME280;20031;43.416;23.232;2023-07-31T01:59:16;99408.56;;;24.44;66.21
33697;BME280;20031;43.416;23.232;2023-07-31T02:01:42;99404.84;;;24.35;65.90
33697;BME280;20031;43.416;23.232;2023-07-31T02:04:07;99404.22;;;24.23;66.74
33697;BME280;20031;43.416;23.232;2023-07-31T02:06:33;99399.16;;;24.17;67.03
33697;BME280;20031;43.416;23.232;2023-07-31T02:08:58;99405.78;;;24.14;67.76
33697;BME280;20031;43.416;23.232;2023-07-31T02:11:24;99409.81;;;24.17;67.50
33697;BME280;20031;43.416;23.232;2023-07-31T02:13:49;99407.94;;;24.17;68.01
33697;BME280;20031;43.416;23.232;2023-07-31T02:16:14;99406.56;;;24.05;67.82
33697;BME280;20031;43.416;23.232;2023-07-31T02:18:40;99406.56;;;24.05;68.49
33697;BME280;20031;43.416;23.232;2023-07-31T02:21:05;99409.75;;;24.07;67.74
33697;BME280;20031;43.416;23.232;2023-07-31T02:23:31;99411.06;;;24.05;67.78
33697;BME280;20031;43.416;23.232;2023-07-31T02:25:56;99414.00;;;24.03;67.97
33697;BME280;20031;43.416;23.232;2023-07-31T02:28:21;99408.97;;;24.07;67.92
33697;BME280;20031;43.416;23.232;2023-07-31T02:30:47;99415.09;;;24.07;67.97
33697;BME280;20031;43.416;23.232;2023-07-31T02:33:12;99410.28;;;24.04;68.06
33697;BME280;20031;43.416;23.232;2023-07-31T02:35:38;99419.63;;;24.07;68.39
33697;BME280;20031;43.416;23.232;2023-07-31T02:38:03;99424.41;;;24.10;68.31
33697;BME280;20031;43.416;23.232;2023-07-31T02:40:28;99428.13;;;24.13;68.66
33697;BME280;20031;43.416;23.232;2023-07-31T02:42:54;99427.91;;;24.15;67.95
33697;BME280;20031;43.416;23.232;2023-07-31T02:45:19;99433.72;;;24.12;67.05
33697;BME280;20031;43.416;23.232;2023-07-31T02:47:45;99436.94;;;24.14;66.56
33697;BME280;20031;43.416;23.232;2023-07-31T02:50:10;99444.66;;;24.20;67.30
33697;BME280;20031;43.416;23.232;2023-07-31T02:52:36;99438.81;;;24.18;67.89
33697;BME280;20031;43.416;23.232;2023-07-31T02:55:01;99437.72;;;24.14;68.67
33697;BME280;20031;43.416;23.232;2023-07-31T02:57:27;99447.53;;;24.04;69.66
33697;BME280;20031;43.416;23.232;2023-07-31T02:59:52;99445.94;;;23.98;70.24
33697;BME280;20031;43.416;23.232;2023-07-31T03:02:17;99444.56;;;23.96;70.28
33697;BME280;20031;43.416;23.232;2023-07-31T03:04:43;99455.75;;;23.93;70.47
33697;BME280;20031;43.416;23.232;2023-07-31T03:07:08;99455.69;;;23.88;70.34
33697;BME280;20031;43.416;23.232;2023-07-31T03:09:34;99455.16;;;23.86;70.96
33697;BME280;20031;43.416;23.232;2023-07-31T03:11:59;99462.09;;;23.87;70.93
33697;BME280;20031;43.416;23.232;2023-07-31T03:14:25;99461.84;;;23.88;70.71
33697;BME280;20031;43.416;23.232;2023-07-31T03:16:52;99463.97;;;23.91;71.01
33697;BME280;20031;43.416;23.232;2023-07-31T03:19:17;99460.50;;;23.91;70.77
33697;BME280;20031;43.416;23.232;2023-07-31T03:21:43;99462.34;;;23.85;70.71
33697;BME280;20031;43.416;23.232;2023-07-31T03:24:08;99460.44;;;23.81;70.89
33697;BME280;20031;43.416;23.232;2023-07-31T03:26:34;99474.31;;;23.83;70.99
33697;BME280;20031;43.416;23.232;2023-07-31T03:29:00;99475.09;;;23.83;71.00
33697;BME280;20031;43.416;23.232;2023-07-31T03:31:25;99479.38;;;23.84;70.91
33697;BME280;20031;43.416;23.232;2023-07-31T03:33:51;99470.09;;;23.87;70.65
33697;BME280;20031;43.416;23.232;2023-07-31T03:36:16;99480.69;;;23.82;70.76
33697;BME280;20031;43.416;23.232;2023-07-31T03:38:42;99484.38;;;23.81;70.47
33697;BME280;20031;43.416;23.232;2023-07-31T03:41:07;99484.16;;;23.87;70.82
33697;BME280;20031;43.416;23.232;2023-07-31T03:43:32;99479.13;;;23.91;70.79
33697;BME280;20031;43.416;23.232;2023-07-31T03:46:02;99481.25;;;23.89;70.43
33697;BME280;20031;43.416;23.232;2023-07-31T03:48:28;99492.69;;;23.89;70.66
33697;BME280;20031;43.416;23.232;2023-07-31T03:50:54;99483.66;;;23.90;70.44
33697;BME280;20031;43.416;23.232;2023-07-31T03:53:20;99477.56;;;23.95;70.41
33697;BME280;20031;43.416;23.232;2023-07-31T03:55:45;99478.13;;;23.97;70.70
33697;BME280;20031;43.416;23.232;2023-07-31T03:58:11;99483.97;;;23.99;70.75
33697;BME280;20031;43.416;23.232;2023-07-31T04:00:36;99491.19;;;24.03;70.13
33697;BME280;20031;43.416;23.232;2023-07-31T04:03:01;99484.53;;;24.06;70.33
33697;BME280;20031;43.416;23.232;2023-07-31T04:05:27;99489.34;;;24.04;70.52
33697;BME280;20031;43.416;23.232;2023-07-31T04:07:52;99492.78;;;24.04;70.75
33697;BME280;20031;43.416;23.232;2023-07-31T04:10:18;99493.31;;;24.01;70.40
33697;BME280;20031;43.416;23.232;2023-07-31T04:12:43;99491.75;;;24.05;70.14
33697;BME280;20031;43.416;23.232;2023-07-31T04:15:09;99497.34;;;24.13;70.33
33697;BME280;20031;43.416;23.232;2023-07-31T04:17:34;99496.06;;;24.21;70.25
33697;BME280;20031;43.416;23.232;2023-07-31T04:20:00;99508.63;;;24.30;69.49
33697;BME280;20031;43.416;23.232;2023-07-31T04:22:25;99496.72;;;24.38;69.16
33697;BME280;20031;43.416;23.232;2023-07-31T04:24:51;99512.97;;;24.41;69.18
33697;BME280;20031;43.416;23.232;2023-07-31T04:27:16;99509.00;;;24.49;68.91
33697;BME280;20031;43.416;23.232;2023-07-31T04:29:42;99501.88;;;24.69;68.66
33697;BME280;20031;43.416;23.232;2023-07-31T04:32:09;99488.31;;;24.85;68.14
33697;BME280;20031;43.416;23.232;2023-07-31T04:34:35;99492.94;;;25.05;67.42
33697;BME280;20031;43.416;23.232;2023-07-31T04:37:00;99497.97;;;25.11;66.92
33697;BME280;20031;43.416;23.232;2023-07-31T04:39:26;99494.78;;;25.14;66.47
33697;BME280;20031;43.416;23.232;2023-07-31T04:41:51;99491.31;;;25.14;65.74
33697;BME280;20031;43.416;23.232;2023-07-31T04:44:16;99502.53;;;25.30;65.96
33697;BME280;20031;43.416;23.232;2023-07-31T04:46:42;99500.94;;;25.39;64.07
33697;BME280;20031;43.416;23.232;2023-07-31T04:49:07;99500.94;;;25.39;60.48
33697;BME280;20031;43.416;23.232;2023-07-31T04:51:33;99502.28;;;25.47;59.21
33697;BME280;20031;43.416;23.232;2023-07-31T04:53:58;99490.00;;;25.46;58.29
33697;BME280;20031;43.416;23.232;2023-07-31T04:56:23;99490.56;;;25.43;57.85
33697;BME280;20031;43.416;23.232;2023-07-31T04:58:49;99500.94;;;25.44;58.00
33697;BME280;20031;43.416;23.232;2023-07-31T05:01:14;99503.34;;;25.46;57.11
33697;BME280;20031;43.416;23.232;2023-07-31T05:03:40;99500.94;;;25.54;56.72
33697;BME280;20031;43.416;23.232;2023-07-31T05:06:05;99501.47;;;25.61;55.83
33697;BME280;20031;43.416;23.232;2023-07-31T05:08:30;99499.06;;;25.65;55.44
33697;BME280;20031;43.416;23.232;2023-07-31T05:10:56;99500.69;;;25.75;55.41
33697;BME280;20031;43.416;23.232;2023-07-31T05:13:21;99500.94;;;25.84;54.79
33697;BME280;20031;43.416;23.232;2023-07-31T05:15:47;99498.78;;;25.86;54.17
33697;BME280;20031;43.416;23.232;2023-07-31T05:18:14;99490.00;;;25.85;53.74
33697;BME280;20031;43.416;23.232;2023-07-31T05:20:40;99498.25;;;25.94;53.38
33697;BME280;20031;43.416;23.232;2023-07-31T05:23:05;99500.66;;;25.95;53.10
33697;BME280;20031;43.416;23.232;2023-07-31T05:25:30;99507.81;;;26.05;53.92
33697;BME280;20031;43.416;23.232;2023-07-31T05:27:56;99506.78;;;26.01;52.50
33697;BME280;20031;43.416;23.232;2023-07-31T05:30:21;99501.44;;;26.01;53.09
33697;BME280;20031;43.416;23.232;2023-07-31T05:32:47;99496.06;;;26.16;52.62
33697;BME280;20031;43.416;23.232;2023-07-31T05:35:12;99495.22;;;26.25;52.38
33697;BME280;20031;43.416;23.232;2023-07-31T05:37:38;99493.88;;;26.27;52.22
33697;BME280;20031;43.416;23.232;2023-07-31T05:40:04;99503.50;;;26.33;51.55
33697;BME280;20031;43.416;23.232;2023-07-31T05:42:29;99498.69;;;26.40;51.68
33697;BME280;20031;43.416;23.232;2023-07-31T05:44:54;99495.47;;;26.38;51.88
33697;BME280;20031;43.416;23.232;2023-07-31T05:47:20;99504.25;;;26.44;51.80
33697;BME280;20031;43.416;23.232;2023-07-31T05:49:45;99506.09;;;26.48;51.39
33697;BME280;20031;43.416;23.232;2023-07-31T05:52:11;99503.44;;;26.53;51.48
33697;BME280;20031;43.416;23.232;2023-07-31T05:54:36;99499.97;;;26.43;50.38
33697;BME280;20031;43.416;23.232;2023-07-31T05:57:02;99496.50;;;26.47;51.67
33697;BME280;20031;43.416;23.232;2023-07-31T05:59:27;99506.34;;;26.57;50.65
33697;BME280;20031;43.416;23.232;2023-07-31T06:01:53;99499.19;;;26.47;50.81
33697;BME280;20031;43.416;23.232;2023-07-31T06:04:18;99490.63;;;26.45;51.09
33697;BME280;20031;43.416;23.232;2023-07-31T06:06:43;99497.59;;;26.41;51.17
33697;BME280;20031;43.416;23.232;2023-07-31T06:09:09;99505.03;;;26.44;51.23
33697;BME280;20031;43.416;23.232;2023-07-31T06:11:34;99514.41;;;26.47;50.33
33697;BME280;20031;43.416;23.232;2023-07-31T06:14:00;99502.38;;;26.44;50.90
33697;BME280;20031;43.416;23.232;2023-07-31T06:16:25;99504.47;;;26.57;51.24
33697;BME280;20031;43.416;23.232;2023-07-31T06:18:52;99505.19;;;26.73;50.76
33697;BME280;20031;43.416;23.232;2023-07-31T06:21:17;99513.47;;;26.76;49.66
33697;BME280;20031;43.416;23.232;2023-07-31T06:23:43;99510.19;;;26.89;50.04
33697;BME280;20031;43.416;23.232;2023-07-31T06:26:08;99501.66;;;26.82;49.51
33697;BME280;20031;43.416;23.232;2023-07-31T06:28:34;99506.97;;;26.87;49.56
33697;BME280;20031;43.416;23.232;2023-07-31T06:31:00;99506.16;;;26.96;49.54
33697;BME280;20031;43.416;23.232;2023-07-31T06:33:26;99503.38;;;27.11;49.44
33697;BME280;20031;43.416;23.232;2023-07-31T06:35:52;99504.13;;;27.17;48.87
33697;BME280;20031;43.416;23.232;2023-07-31T06:38:35;99503.13;;;27.13;48.64
33697;BME280;20031;43.416;23.232;2023-07-31T06:41:02;99503.03;;;27.23;48.63
33697;BME280;20031;43.416;23.232;2023-07-31T06:43:28;99498.25;;;27.20;48.32
33697;BME280;20031;43.416;23.232;2023-07-31T06:45:53;99495.50;;;27.29;48.89
33697;BME280;20031;43.416;23.232;2023-07-31T06:48:18;99508.53;;;27.36;48.50
33697;BME280;20031;43.416;23.232;2023-07-31T06:50:44;99510.28;;;27.50;48.39
33697;BME280;20031;43.416;23.232;2023-07-31T06:53:09;99515.41;;;27.47;48.02
33697;BME280;20031;43.416;23.232;2023-07-31T06:55:35;99516.69;;;27.59;48.19
33697;BME280;20031;43.416;23.232;2023-07-31T06:58:00;99526.34;;;27.50;47.91
33697;BME280;20031;43.416;23.232;2023-07-31T07:00:26;99515.69;;;27.45;47.76
33697;BME280;20031;43.416;23.232;2023-07-31T07:02:52;99521.81;;;27.51;47.82
33697;BME280;20031;43.416;23.232;2023-07-31T07:05:18;99511.72;;;27.38;48.32
33697;BME280;20031;43.416;23.232;2023-07-31T07:07:43;99516.75;;;27.49;48.07
33697;BME280;20031;43.416;23.232;2023-07-31T07:10:09;99516.91;;;27.63;48.90
33697;BME280;20031;43.416;23.232;2023-07-31T07:12:35;99515.97;;;27.77;47.98
33697;BME280;20031;43.416;23.232;2023-07-31T07:15:01;99508.91;;;27.86;48.11
33697;BME280;20031;43.416;23.232;2023-07-31T07:17:28;99519.09;;;27.89;47.33
33697;BME280;20031;43.416;23.232;2023-07-31T07:19:56;99519.34;;;27.87;47.69
33697;BME280;20031;43.416;23.232;2023-07-31T07:22:22;99520.56;;;28.00;48.61
33697;BME280;20031;43.416;23.232;2023-07-31T07:24:48;99526.97;;;28.04;47.81
33697;BME280;20031;43.416;23.232;2023-07-31T07:27:13;99525.75;;;28.20;47.41
33697;BME280;20031;43.416;23.232;2023-07-31T07:29:40;99535.31;;;28.26;47.21
33697;BME280;20031;43.416;23.232;2023-07-31T07:32:05;99523.53;;;28.27;47.41
33697;BME280;20031;43.416;23.232;2023-07-31T07:34:31;99520.50;;;28.33;47.20
33697;BME280;20031;43.416;23.232;2023-07-31T07:36:56;99516.09;;;28.42;46.53
33697;BME280;20031;43.416;23.232;2023-07-31T07:39:22;99518.16;;;28.68;46.65
33697;BME280;20031;43.416;23.232;2023-07-31T07:41:47;99516.25;;;28.74;46.02
33697;BME280;20031;43.416;23.232;2023-07-31T07:44:14;99531.78;;;28.53;46.83
33697;BME280;20031;43.416;23.232;2023-07-31T07:46:39;99519.41;;;28.34;46.69
33697;BME280;20031;43.416;23.232;2023-07-31T07:49:05;99521.97;;;28.44;46.92
33697;BME280;20031;43.416;23.232;2023-07-31T07:51:31;99525.19;;;28.46;45.48
33697;BME280;20031;43.416;23.232;2023-07-31T07:53:57;99529.38;;;28.29;46.28
33697;BME280;20031;43.416;23.232;2023-07-31T07:56:25;99525.00;;;28.37;47.40
33697;BME280;20031;43.416;23.232;2023-07-31T07:58:50;99529.84;;;28.59;46.57
33697;BME280;20031;43.416;23.232;2023-07-31T08:01:16;99536.84;;;28.55;47.20
33697;BME280;20031;43.416;23.232;2023-07-31T08:03:41;99532.78;;;28.81;45.95
33697;BME280;20031;43.416;23.232;2023-07-31T08:06:07;99534.13;;;29.01;45.20
33697;BME280;20031;43.416;23.232;2023-07-31T08:08:34;99540.78;;;29.04;44.63
33697;BME280;20031;43.416;23.232;2023-07-31T08:11:00;99528.31;;;29.13;44.52
33697;BME280;20031;43.416;23.232;2023-07-31T08:13:25;99524.28;;;29.34;44.74
33697;BME280;20031;43.416;23.232;2023-07-31T08:15:51;99535.25;;;29.50;44.15
33697;BME280;20031;43.416;23.232;2023-07-31T08:18:16;99536.97;;;29.60;43.22
33697;BME280;20031;43.416;23.232;2023-07-31T08:20:42;99532.78;;;29.54;43.49
33697;BME280;20031;43.416;23.232;2023-07-31T08:23:09;99550.88;;;29.48;43.33
33697;BME280;20031;43.416;23.232;2023-07-31T08:25:35;99545.59;;;29.43;43.02
33697;BME280;20031;43.416;23.232;2023-07-31T08:28:02;99547.97;;;29.45;42.92
33697;BME280;20031;43.416;23.232;2023-07-31T08:30:27;99532.03;;;29.35;44.12
33697;BME280;20031;43.416;23.232;2023-07-31T08:32:53;99526.97;;;29.65;43.33
33697;BME280;20031;43.416;23.232;2023-07-31T08:35:19;99527.13;;;29.87;42.31
33697;BME280;20031;43.416;23.232;2023-07-31T08:37:44;99537.50;;;29.93;42.80
33697;BME280;20031;43.416;23.232;2023-07-31T08:40:10;99530.03;;;30.04;42.29
33697;BME280;20031;43.416;23.232;2023-07-31T08:42:50;99530.09;;;30.17;42.43
33697;BME280;20031;43.416;23.232;2023-07-31T08:45:17;99543.16;;;30.50;41.75
33697;BME280;20031;43.416;23.232;2023-07-31T08:47:45;99539.13;;;30.35;40.79
33697;BME280;20031;43.416;23.232;2023-07-31T08:50:16;99537.63;;;30.15;41.04
33697;BME280;20031;43.416;23.232;2023-07-31T08:52:43;99523.00;;;30.21;41.54
33697;BME280;20031;43.416;23.232;2023-07-31T08:55:08;99538.56;;;30.51;41.42
33697;BME280;20031;43.416;23.232;2023-07-31T08:57:36;99539.78;;;30.58;41.80
33697;BME280;20031;43.416;23.232;2023-07-31T09:00:04;99527.63;;;30.47;41.81
33697;BME280;20031;43.416;23.232;2023-07-31T09:02:48;99531.38;;;30.73;40.89
33697;BME280;20031;43.416;23.232;2023-07-31T09:05:16;99527.97;;;30.68;40.43
33697;BME280;20031;43.416;23.232;2023-07-31T09:07:44;99528.78;;;30.68;40.98
33697;BME280;20031;43.416;23.232;2023-07-31T09:10:11;99526.09;;;30.68;40.83
33697;BME280;20031;43.416;23.232;2023-07-31T09:12:37;99527.97;;;30.81;41.01
33697;BME280;20031;43.416;23.232;2023-07-31T09:15:04;99531.56;;;30.90;40.90
33697;BME280;20031;43.416;23.232;2023-07-31T09:17:31;99528.00;;;30.41;40.63
33697;BME280;20031;43.416;23.232;2023-07-31T09:19:57;99533.66;;;29.81;42.25
33697;BME280;20031;43.416;23.232;2023-07-31T09:22:33;99530.03;;;30.04;42.34
33697;BME280;20031;43.416;23.232;2023-07-31T09:25:18;99538.34;;;30.34;39.44
33697;BME280;20031;43.416;23.232;2023-07-31T09:27:57;99526.19;;;30.63;38.98
33697;BME280;20031;43.416;23.232;2023-07-31T09:30:23;99525.91;;;31.13;39.01
33697;BME280;20031;43.416;23.232;2023-07-31T09:32:50;99519.25;;;31.33;38.51
33697;BME280;20031;43.416;23.232;2023-07-31T09:35:27;99514.63;;;31.25;39.33
33697;BME280;20031;43.416;23.232;2023-07-31T09:37:57;99514.66;;;31.33;39.14
33697;BME280;20031;43.416;23.232;2023-07-31T09:40:34;99516.25;;;31.48;39.36
33697;BME280;20031;43.416;23.232;2023-07-31T09:45:26;99509.25;;;31.25;38.41
33697;BME280;20031;43.416;23.232;2023-07-31T09:47:51;99514.50;;;31.08;39.66
33697;BME280;20031;43.416;23.232;2023-07-31T09:50:20;99516.13;;;31.17;39.41
33697;BME280;20031;43.416;23.232;2023-07-31T09:52:46;99510.44;;;31.19;38.81
33697;BME280;20031;43.416;23.232;2023-07-31T09:55:12;99520.19;;;31.28;38.82
33697;BME280;20031;43.416;23.232;2023-07-31T09:57:40;99515.97;;;31.14;38.01
33697;BME280;20031;43.416;23.232;2023-07-31T10:00:07;99499.59;;;31.10;37.51
33697;BME280;20031;43.416;23.232;2023-07-31T10:02:34;99499.88;;;31.44;37.19
33697;BME280;20031;43.416;23.232;2023-07-31T10:05:02;99497.22;;;31.96;36.64
33697;BME280;20031;43.416;23.232;2023-07-31T10:07:30;99501.00;;;32.34;34.82
33697;BME280;20031;43.416;23.232;2023-07-31T10:09:57;99495.44;;;32.30;35.49
33697;BME280;20031;43.416;23.232;2023-07-31T10:12:26;99504.31;;;32.31;36.32
33697;BME280;20031;43.416;23.232;2023-07-31T10:14:54;99496.72;;;32.33;36.25
33697;BME280;20031;43.416;23.232;2023-07-31T10:17:22;99501.91;;;31.60;37.19
33697;BME280;20031;43.416;23.232;2023-07-31T10:19:49;99500.38;;;31.98;37.87
33697;BME280;20031;43.416;23.232;2023-07-31T10:22:15;99494.00;;;32.24;37.82
33697;BME280;20031;43.416;23.232;2023-07-31T10:24:42;99505.53;;;32.47;36.03
33697;BME280;20031;43.416;23.232;2023-07-31T10:27:08;99499.69;;;31.93;37.17
33697;BME280;20031;43.416;23.232;2023-07-31T10:29:35;99499.47;;;31.50;37.68
33697;BME280;20031;43.416;23.232;2023-07-31T10:32:02;99489.03;;;31.79;37.82
33697;BME280;20031;43.416;23.232;2023-07-31T10:34:33;99496.44;;;32.43;37.18
33697;BME280;20031;43.416;23.232;2023-07-31T10:40:05;99493.53;;;32.78;35.46
33697;BME280;20031;43.416;23.232;2023-07-31T10:45:05;99487.66;;;32.93;33.46
33697;BME280;20031;43.416;23.232;2023-07-31T10:47:37;99501.94;;;32.93;34.07
33697;BME280;20031;43.416;23.232;2023-07-31T10:50:22;99488.78;;;33.34;33.67
33697;BME280;20031;43.416;23.232;2023-07-31T10:52:51;99482.06;;;33.65;33.46
33697;BME280;20031;43.416;23.232;2023-07-31T10:57:52;99473.28;;;33.76;33.45
33697;BME280;20031;43.416;23.232;2023-07-31T11:00:28;99472.25;;;33.35;32.89
33697;BME280;20031;43.416;23.232;2023-07-31T11:03:06;99487.94;;;32.74;33.34
33697;BME280;20031;43.416;23.232;2023-07-31T11:05:47;99473.69;;;32.18;34.49
33697;BME280;20031;43.416;23.232;2023-07-31T11:08:24;99477.44;;;32.48;33.57
33697;BME280;20031;43.416;23.232;2023-07-31T11:13:26;99470.84;;;33.04;33.16
33697;BME280;20031;43.416;23.232;2023-07-31T11:15:51;99472.28;;;33.02;33.00
33697;BME280;20031;43.416;23.232;2023-07-31T11:18:17;99463.06;;;33.11;32.99
33697;BME280;20031;43.416;23.232;2023-07-31T11:20:43;99463.53;;;33.47;32.43
33697;BME280;20031;43.416;23.232;2023-07-31T11:23:10;99458.41;;;33.45;32.26
33697;BME280;20031;43.416;23.232;2023-07-31T11:25:37;99462.72;;;33.46;32.63
33697;BME280;20031;43.416;23.232;2023-07-31T11:28:08;99452.88;;;33.50;32.94
33697;BME280;20031;43.416;23.232;2023-07-31T11:30:35;99476.25;;;33.46;33.38
33697;BME280;20031;43.416;23.232;2023-07-31T11:33:02;99466.72;;;33.32;32.89
33697;BME280;20031;43.416;23.232;2023-07-31T11:35:33;99467.03;;;33.39;33.05
33697;BME280;20031;43.416;23.232;2023-07-31T11:37:59;99454.88;;;33.70;33.40
33697;BME280;20031;43.416;23.232;2023-07-31T11:40:25;99457.88;;;34.22;32.92
33697;BME280;20031;43.416;23.232;2023-07-31T11:42:57;99451.09;;;34.37;32.28
33697;BME280;20031;43.416;23.232;2023-07-31T11:45:26;99457.66;;;34.27;32.74
33697;BME280;20031;43.416;23.232;2023-07-31T11:47:57;99442.97;;;34.45;32.75
33697;BME280;20031;43.416;23.232;2023-07-31T11:50:24;99446.84;;;34.56;31.64
33697;BME280;20031;43.416;23.232;2023-07-31T11:52:57;99452.53;;;34.34;31.61
33697;BME280;20031;43.416;23.232;2023-07-31T11:55:25;99450.25;;;34.16;32.05
33697;BME280;20031;43.416;23.232;2023-07-31T11:57:51;99448.81;;;34.18;31.56
33697;BME280;20031;43.416;23.232;2023-07-31T12:00:17;99448.13;;;34.01;32.49
33697;BME280;20031;43.416;23.232;2023-07-31T12:02:43;99449.47;;;34.15;31.70
33697;BME280;20031;43.416;23.232;2023-07-31T12:05:13;99443.16;;;34.32;31.16
33697;BME280;20031;43.416;23.232;2023-07-31T12:07:51;99432.22;;;34.28;31.02
33697;BME280;20031;43.416;23.232;2023-07-31T12:10:28;99430.47;;;34.53;31.00
33697;BME280;20031;43.416;23.232;2023-07-31T12:13:03;99419.84;;;34.48;29.87
33697;BME280;20031;43.416;23.232;2023-07-31T12:15:42;99417.72;;;34.53;30.66
33697;BME280;20031;43.416;23.232;2023-07-31T12:18:15;99406.84;;;34.82;30.52
33697;BME280;20031;43.416;23.232;2023-07-31T12:20:47;99416.16;;;34.72;30.70
33697;BME280;20031;43.416;23.232;2023-07-31T12:23:21;99416.34;;;34.67;31.34
33697;BME280;20031;43.416;23.232;2023-07-31T12:26:07;99416.03;;;34.69;30.70
33697;BME280;20031;43.416;23.232;2023-07-31T12:28:46;99417.00;;;34.15;31.30
33697;BME280;20031;43.416;23.232;2023-07-31T12:31:14;99407.94;;;33.29;33.00
33697;BME280;20031;43.416;23.232;2023-07-31T12:33:41;99418.09;;;32.90;33.49
33697;BME280;20031;43.416;23.232;2023-07-31T12:36:08;99411.13;;;32.97;33.52
33697;BME280;20031;43.416;23.232;2023-07-31T12:38:34;99410.81;;;33.07;34.33
33697;BME280;20031;43.416;23.232;2023-07-31T12:40:59;99413.47;;;33.32;33.44
33697;BME280;20031;43.416;23.232;2023-07-31T12:43:25;99415.38;;;33.32;34.16
33697;BME280;20031;43.416;23.232;2023-07-31T12:45:51;99407.41;;;33.89;33.64
33697;BME280;20031;43.416;23.232;2023-07-31T12:48:16;99405.84;;;34.17;32.91
33697;BME280;20031;43.416;23.232;2023-07-31T12:50:42;99418.00;;;34.11;32.41
33697;BME280;20031;43.416;23.232;2023-07-31T12:53:07;99418.69;;;33.91;32.23
33697;BME280;20031;43.416;23.232;2023-07-31T12:55:33;99416.09;;;33.66;32.62
33697;BME280;20031;43.416;23.232;2023-07-31T12:58:00;99414.13;;;32.96;33.92
33697;BME280;20031;43.416;23.232;2023-07-31T13:00:25;99417.78;;;32.91;34.13
33697;BME280;20031;43.416;23.232;2023-07-31T13:02:51;99404.56;;;33.32;33.24
33697;BME280;20031;43.416;23.232;2023-07-31T13:05:17;99408.72;;;33.83;32.74
33697;BME280;20031;43.416;23.232;2023-07-31T13:07:43;99398.63;;;33.92;32.12